Time;durP1;ratioP1;P1;durP2;ratioP2;P2;SDS_P1;SDS_P2;PMS_P1;PMS_P2;Temp;Humidity;BMP_temperature;BMP_pressure;BME280_temperature;BME280_humidity;BME280_pressure;Samples;Min_cycle;Max_cycle;Signal;HPM_P1;HPM_P2
2021/12/22 00:01:40;;;;;;;59.85;44.72;;;;;;;;;;5115781;27;20102;-46
2021/12/22 00:04:06;;;;;;;68.53;44.10;;;;;;;;;;5118975;27;20196;-46
2021/12/22 00:06:33;;;;;;;60.35;42.33;;;;;;;;;;5119357;27;20018;-46
2021/12/22 00:08:59;;;;;;;52.22;42.08;;;;;;;;;;5117484;27;20058;-46
2021/12/22 00:11:25;;;;;;;53.15;37.13;;;;;;;;;;5117363;27;20113;-47
2021/12/22 00:13:50;;;;;;;35.05;27.45;;;;;;;;;;5118028;27;20098;-47
2021/12/22 00:16:16;;;;;;;49.67;35.33;;;;;;;;;;5118655;27;20023;-46
2021/12/22 00:18:42;;;;;;;50.35;36.80;;;;;;;;;;5120370;27;20076;-46
2021/12/22 00:21:07;;;;;;;48.85;32.58;;;;;;;;;;5118458;27;20047;-47
2021/12/22 00:23:32;;;;;;;24.75;20.75;;;;;;;;;;5114838;27;20028;-47
2021/12/22 00:25:58;;;;;;;37.47;22.42;;;;;;;;;;5117758;27;20031;-46
2021/12/22 00:28:23;;;;;;;33.63;20.30;;;;;;;;;;5116399;27;20059;-46
2021/12/22 00:30:50;;;;;;;26.80;15.43;;;;;;;;;;5122188;27;20020;-47
2021/12/22 00:33:16;;;;;;;15.50;13.13;;;;;;;;;;5120018;27;20144;-44
2021/12/22 00:35:44;;;;;;;23.77;18.20;;;;;;;;;;5115607;27;20653;-43
2021/12/22 00:38:11;;;;;;;32.97;23.40;;;;;;;;;;5117128;27;20022;-44
2021/12/22 00:40:36;;;;;;;53.60;31.13;;;;;;;;;;5116930;27;20020;-48
2021/12/22 00:43:01;;;;;;;34.92;27.48;;;;;;;;;;5115396;27;20020;-48
2021/12/22 00:45:28;;;;;;;38.20;30.30;;;;;;;;;;5117048;27;20043;-44
2021/12/22 00:47:54;;;;;;;40.72;31.42;;;;;;;;;;5118469;27;20016;-44
2021/12/22 00:50:19;;;;;;;37.33;25.58;;;;;;;;;;5117119;27;20026;-49
2021/12/22 00:52:45;;;;;;;35.83;25.02;;;;;;;;;;5118824;27;20008;-48
2021/12/22 00:55:13;;;;;;;28.58;20.45;;;;;;;;;;5110859;27;20094;-48
2021/12/22 00:57:39;;;;;;;46.38;29.00;;;;;;;;;;5114422;27;20027;-48
2021/12/22 01:00:06;;;;;;;54.78;37.92;;;;;;;;;;5111267;27;20540;-47
2021/12/22 01:02:31;;;;;;;56.72;42.33;;;;;;;;;;5113308;27;20020;-44
2021/12/22 01:04:57;;;;;;;44.00;39.05;;;;;;;;;;5115136;27;20026;-47
2021/12/22 01:07:22;;;;;;;44.30;33.38;;;;;;;;;;5115208;27;20019;-46
2021/12/22 01:09:47;;;;;;;45.50;29.90;;;;;;;;;;5117368;27;20777;-48
2021/12/22 01:12:13;;;;;;;34.22;19.63;;;;;;;;;;5118610;27;20012;-45
2021/12/22 01:14:38;;;;;;;36.83;22.48;;;;;;;;;;5120865;27;20035;-46
2021/12/22 01:17:05;;;;;;;31.38;21.42;;;;;;;;;;5118766;27;20104;-48
2021/12/22 01:19:58;;;;;;;25.35;20.00;;;;;;;;;;5115265;27;20031;-45
2021/12/22 01:24:59;;;;;;;26.95;17.85;;;;;;;;;;5117118;27;20578;-48
2021/12/22 01:27:26;;;;;;;43.33;31.25;;;;;;;;;;5118126;27;20110;-46
2021/12/22 01:29:51;;;;;;;52.45;33.15;;;;;;;;;;5117663;27;20058;-49
2021/12/22 01:32:17;;;;;;;53.13;31.10;;;;;;;;;;5117890;27;20078;-46
2021/12/22 01:34:43;;;;;;;34.63;26.17;;;;;;;;;;5115540;27;20080;-46
2021/12/22 01:37:08;;;;;;;40.50;20.85;;;;;;;;;;5115740;27;20023;-44
2021/12/22 01:39:33;;;;;;;33.13;22.30;;;;;;;;;;5115927;27;20444;-44
2021/12/22 01:41:59;;;;;;;30.90;17.23;;;;;;;;;;5118011;27;20023;-47
2021/12/22 01:44:34;;;;;;;26.92;18.70;;;;;;;;;;5115352;27;20055;-43
2021/12/22 01:49:49;;;;;;;21.67;18.25;;;;;;;;;;5120161;27;20110;-46
2021/12/22 01:52:14;;;;;;;44.97;40.72;;;;;;;;;;5114664;27;20030;-47
2021/12/22 01:54:50;;;;;;;36.38;23.92;;;;;;;;;;5117800;27;20035;-48
2021/12/22 01:57:16;;;;;;;62.90;34.55;;;;;;;;;;5116394;27;20031;-44
2021/12/22 01:59:43;;;;;;;61.88;38.17;;;;;;;;;;5116433;27;20020;-45
2021/12/22 02:02:10;;;;;;;114.78;59.63;;;;;;;;;;5115949;27;20879;-44
2021/12/22 02:04:38;;;;;;;89.80;46.53;;;;;;;;;;5116347;27;20045;-45
2021/12/22 02:07:04;;;;;;;45.75;27.83;;;;;;;;;;5116805;27;20073;-46
2021/12/22 02:09:58;;;;;;;75.25;41.58;;;;;;;;;;5114498;27;20506;-42
2021/12/22 02:12:14;;;;;;;58.60;35.20;;;;;;;;;;5111837;27;20094;-46
2021/12/22 02:14:41;;;;;;;46.15;31.60;;;;;;;;;;5115291;27;20114;-45
2021/12/22 02:17:09;;;;;;;55.08;37.17;;;;;;;;;;5111227;27;20023;-48
2021/12/22 02:19:36;;;;;;;43.72;35.05;;;;;;;;;;5115887;27;20046;-45
2021/12/22 02:22:07;;;;;;;44.72;28.40;;;;;;;;;;5111102;27;20027;-43
2021/12/22 02:24:32;;;;;;;35.28;26.67;;;;;;;;;;5116659;27;20085;-47
2021/12/22 02:27:04;;;;;;;45.05;27.88;;;;;;;;;;5119193;27;20031;-45
2021/12/22 02:29:38;;;;;;;34.78;26.13;;;;;;;;;;5112652;27;20018;-43
2021/12/22 02:32:22;;;;;;;24.25;19.10;;;;;;;;;;5116044;27;20019;-44
2021/12/22 02:34:48;;;;;;;28.42;20.48;;;;;;;;;;5116697;27;20044;-44
2021/12/22 02:37:17;;;;;;;23.38;17.90;;;;;;;;;;5116899;27;20102;-47
2021/12/22 02:39:59;;;;;;;33.08;23.08;;;;;;;;;;5115340;27;20107;-46
2021/12/22 02:42:28;;;;;;;37.78;21.92;;;;;;;;;;5114125;27;20028;-43
2021/12/22 02:44:54;;;;;;;37.72;23.15;;;;;;;;;;5094778;28;20108;-46
2021/12/22 02:47:21;;;;;;;48.13;25.73;;;;;;;;;;5112942;27;20061;-46
2021/12/22 02:49:47;;;;;;;58.30;27.80;;;;;;;;;;5113164;27;20102;-47
2021/12/22 02:52:13;;;;;;;45.83;26.75;;;;;;;;;;5116390;27;20144;-45
2021/12/22 02:54:47;;;;;;;32.33;22.83;;;;;;;;;;5115597;27;20773;-46
2021/12/22 02:57:48;;;;;;;42.75;27.38;;;;;;;;;;5111666;27;20027;-44
2021/12/22 03:05:24;;;;;;;27.13;18.38;;;;;;;;;;5114525;28;20469;-44
2021/12/22 03:07:49;;;;;;;29.20;15.20;;;;;;;;;;5114565;28;20446;-48
2021/12/22 03:10:17;;;;;;;20.75;15.80;;;;;;;;;;5110768;28;20058;-46
2021/12/22 03:12:44;;;;;;;13.25;10.82;;;;;;;;;;5114554;28;20080;-43
2021/12/22 03:15:09;;;;;;;27.70;12.00;;;;;;;;;;5113386;28;20388;-44
2021/12/22 03:17:36;;;;;;;17.20;11.82;;;;;;;;;;5112429;28;20436;-49
2021/12/22 03:20:02;;;;;;;29.73;11.93;;;;;;;;;;5113780;27;20043;-43
2021/12/22 03:22:27;;;;;;;16.83;10.70;;;;;;;;;;5113448;28;20022;-45
2021/12/22 03:24:52;;;;;;;22.08;9.52;;;;;;;;;;5113740;28;20046;-44
2021/12/22 03:27:19;;;;;;;21.95;11.65;;;;;;;;;;5118879;28;20097;-49
2021/12/22 03:29:44;;;;;;;18.60;11.32;;;;;;;;;;5114399;28;20015;-47
2021/12/22 03:32:10;;;;;;;13.65;11.90;;;;;;;;;;5115111;28;20080;-44
2021/12/22 03:34:36;;;;;;;18.90;12.48;;;;;;;;;;5114424;28;20551;-50
2021/12/22 03:37:02;;;;;;;18.85;11.32;;;;;;;;;;5114337;28;20743;-45
2021/12/22 03:39:28;;;;;;;15.48;12.18;;;;;;;;;;5115148;28;20110;-47
2021/12/22 03:41:54;;;;;;;22.25;14.80;;;;;;;;;;5113140;28;20042;-45
2021/12/22 03:44:19;;;;;;;12.77;11.15;;;;;;;;;;5114439;28;20284;-45
2021/12/22 03:46:45;;;;;;;16.58;11.88;;;;;;;;;;5115573;28;20449;-45
2021/12/22 03:49:11;;;;;;;15.93;10.20;;;;;;;;;;5117720;28;20020;-44
2021/12/22 03:51:37;;;;;;;11.65;8.93;;;;;;;;;;5116570;28;20011;-44
2021/12/22 03:54:06;;;;;;;30.27;14.75;;;;;;;;;;5118269;28;20380;-46
2021/12/22 03:56:31;;;;;;;18.83;14.55;;;;;;;;;;5111875;28;20015;-44
2021/12/22 03:58:56;;;;;;;24.30;15.63;;;;;;;;;;5116398;28;20023;-48
2021/12/22 04:01:22;;;;;;;33.53;18.52;;;;;;;;;;5110766;28;20024;-45
2021/12/22 04:03:51;;;;;;;23.35;17.02;;;;;;;;;;5115277;28;20062;-47
2021/12/22 04:06:16;;;;;;;23.27;14.00;;;;;;;;;;5114694;28;20047;-48
2021/12/22 04:08:42;;;;;;;16.10;10.57;;;;;;;;;;5114738;28;20062;-51
2021/12/22 04:11:07;;;;;;;15.20;10.75;;;;;;;;;;5116660;28;20049;-47
2021/12/22 04:13:32;;;;;;;16.83;11.65;;;;;;;;;;5116955;27;20030;-48
2021/12/22 04:15:58;;;;;;;14.40;10.10;;;;;;;;;;5117159;27;20821;-46
2021/12/22 04:18:23;;;;;;;25.98;18.35;;;;;;;;;;5119282;27;20024;-48
2021/12/22 04:20:48;;;;;;;38.67;23.27;;;;;;;;;;5119091;27;20504;-46
2021/12/22 04:23:15;;;;;;;40.80;28.25;;;;;;;;;;5112917;27;20020;-45
2021/12/22 04:25:40;;;;;;;26.55;21.02;;;;;;;;;;5117486;27;20012;-46
2021/12/22 04:28:09;;;;;;;25.65;18.77;;;;;;;;;;5118244;27;20015;-47
2021/12/22 04:30:36;;;;;;;24.33;16.65;;;;;;;;;;5114672;27;20516;-46
2021/12/22 04:33:01;;;;;;;17.85;12.38;;;;;;;;;;5118072;27;20096;-45
2021/12/22 04:35:27;;;;;;;19.73;10.60;;;;;;;;;;5115664;27;20060;-47
2021/12/22 04:37:52;;;;;;;21.45;11.68;;;;;;;;;;5115134;27;20030;-48
2021/12/22 04:40:18;;;;;;;16.25;10.98;;;;;;;;;;5115475;27;20043;-49
2021/12/22 04:42:43;;;;;;;17.98;8.70;;;;;;;;;;5117474;27;20020;-45
2021/12/22 04:45:09;;;;;;;10.18;7.38;;;;;;;;;;5116460;27;20614;-49
2021/12/22 04:47:34;;;;;;;10.45;8.25;;;;;;;;;;5115235;27;20093;-50
2021/12/22 04:50:01;;;;;;;25.42;9.13;;;;;;;;;;5116756;27;20051;-47
2021/12/22 04:52:33;;;;;;;17.15;9.48;;;;;;;;;;5118635;27;20102;-43
2021/12/22 04:55:04;;;;;;;11.80;10.32;;;;;;;;;;5116656;27;20026;-43
2021/12/22 04:57:30;;;;;;;11.60;9.65;;;;;;;;;;5116045;27;20047;-44
2021/12/22 04:59:55;;;;;;;15.00;9.82;;;;;;;;;;5116244;27;20023;-47
2021/12/22 05:02:21;;;;;;;22.08;13.88;;;;;;;;;;5121864;27;20026;-43
2021/12/22 05:04:46;;;;;;;28.27;16.23;;;;;;;;;;5112425;27;20019;-43
2021/12/22 05:07:11;;;;;;;24.15;11.98;;;;;;;;;;5115316;27;20203;-45
2021/12/22 05:09:37;;;;;;;13.65;9.82;;;;;;;;;;5114196;27;20020;-43
2021/12/22 05:12:02;;;;;;;29.02;16.58;;;;;;;;;;5117131;27;20054;-44
2021/12/22 05:14:27;;;;;;;26.75;14.70;;;;;;;;;;5115484;27;20030;-46
2021/12/22 05:16:59;;;;;;;14.57;10.48;;;;;;;;;;5116493;27;20087;-44
2021/12/22 05:19:24;;;;;;;14.82;10.00;;;;;;;;;;5116490;27;20027;-49
2021/12/22 05:21:49;;;;;;;10.63;8.52;;;;;;;;;;5118633;27;20058;-47
2021/12/22 05:24:15;;;;;;;8.07;6.82;;;;;;;;;;5116743;27;20574;-45
2021/12/22 05:26:40;;;;;;;21.85;9.30;;;;;;;;;;5117944;27;20118;-49
2021/12/22 05:29:05;;;;;;;11.98;7.95;;;;;;;;;;5118585;27;20011;-45
2021/12/22 05:31:31;;;;;;;10.38;8.35;;;;;;;;;;5115052;27;20022;-47
2021/12/22 05:33:57;;;;;;;8.63;6.85;;;;;;;;;;5117576;27;20031;-44
2021/12/22 05:36:22;;;;;;;6.22;5.25;;;;;;;;;;5118419;27;20019;-48
2021/12/22 05:38:48;;;;;;;11.57;7.15;;;;;;;;;;5117496;27;20609;-48
2021/12/22 05:41:13;;;;;;;10.88;7.50;;;;;;;;;;5113511;27;20084;-45
2021/12/22 05:43:39;;;;;;;13.48;8.65;;;;;;;;;;5118587;27;20022;-43
2021/12/22 05:46:04;;;;;;;8.75;7.40;;;;;;;;;;5121519;27;20027;-49
2021/12/22 05:48:30;;;;;;;11.00;8.85;;;;;;;;;;5118279;27;20011;-46
2021/12/22 05:50:58;;;;;;;13.55;8.40;;;;;;;;;;5115230;27;20022;-45
2021/12/22 05:53:26;;;;;;;15.35;8.77;;;;;;;;;;5117994;27;20023;-48
2021/12/22 05:55:52;;;;;;;18.23;11.15;;;;;;;;;;5117664;27;20041;-49
2021/12/22 05:58:18;;;;;;;19.48;10.38;;;;;;;;;;5117829;27;20015;-43
2021/12/22 06:00:44;;;;;;;9.57;8.40;;;;;;;;;;5115921;27;20035;-44
2021/12/22 06:03:12;;;;;;;12.30;10.02;;;;;;;;;;5116617;27;20011;-47
2021/12/22 06:05:38;;;;;;;18.13;10.75;;;;;;;;;;5114830;27;20404;-44
2021/12/22 06:08:04;;;;;;;13.35;11.80;;;;;;;;;;5116639;27;20026;-48
2021/12/22 06:10:29;;;;;;;10.77;9.65;;;;;;;;;;5114777;27;20480;-47
2021/12/22 06:12:55;;;;;;;10.30;8.23;;;;;;;;;;5115657;27;20023;-47
2021/12/22 06:15:20;;;;;;;8.98;7.72;;;;;;;;;;5117222;27;20544;-48
2021/12/22 06:17:48;;;;;;;13.88;10.05;;;;;;;;;;5112904;27;20032;-46
2021/12/22 06:20:13;;;;;;;13.90;10.90;;;;;;;;;;5118744;27;20051;-47
2021/12/22 06:22:38;;;;;;;17.73;11.20;;;;;;;;;;5115894;27;20463;-48
2021/12/22 06:25:04;;;;;;;17.58;11.23;;;;;;;;;;5114480;27;20526;-44
2021/12/22 06:27:29;;;;;;;14.35;9.48;;;;;;;;;;5099917;27;20026;-47
2021/12/22 06:29:54;;;;;;;14.80;9.10;;;;;;;;;;5116685;27;20454;-45
2021/12/22 06:32:20;;;;;;;12.18;10.93;;;;;;;;;;5110261;27;20529;-46
2021/12/22 06:34:45;;;;;;;17.48;7.25;;;;;;;;;;5115374;27;20026;-47
2021/12/22 06:37:12;;;;;;;10.65;6.22;;;;;;;;;;5116680;27;20046;-45
2021/12/22 06:39:38;;;;;;;11.05;6.30;;;;;;;;;;5116177;27;20107;-45
2021/12/22 06:42:06;;;;;;;15.48;6.90;;;;;;;;;;5115293;27;20092;-44
2021/12/22 06:44:32;;;;;;;21.08;14.80;;;;;;;;;;5114107;27;20015;-44
2021/12/22 06:46:57;;;;;;;13.65;10.18;;;;;;;;;;5114748;27;20069;-46
2021/12/22 06:49:23;;;;;;;13.23;9.25;;;;;;;;;;5114852;27;20027;-47
2021/12/22 06:51:49;;;;;;;17.00;14.40;;;;;;;;;;5114893;27;20130;-44
2021/12/22 06:54:14;;;;;;;15.82;14.27;;;;;;;;;;5117539;27;20019;-42
2021/12/22 06:56:40;;;;;;;11.38;8.48;;;;;;;;;;5116881;27;20720;-44
2021/12/22 06:59:05;;;;;;;13.75;8.60;;;;;;;;;;5111758;27;20059;-44
2021/12/22 07:01:33;;;;;;;11.32;8.63;;;;;;;;;;5114346;27;20019;-44
2021/12/22 07:03:59;;;;;;;16.30;8.73;;;;;;;;;;5115647;28;20030;-45
2021/12/22 07:06:24;;;;;;;16.67;13.95;;;;;;;;;;5108902;28;20023;-48
2021/12/22 07:08:49;;;;;;;12.48;8.23;;;;;;;;;;5114645;28;20028;-44
2021/12/22 07:11:15;;;;;;;18.48;12.55;;;;;;;;;;5113899;28;20388;-47
2021/12/22 07:13:40;;;;;;;12.55;10.25;;;;;;;;;;5115370;28;20020;-43
2021/12/22 07:16:05;;;;;;;20.65;12.65;;;;;;;;;;5114698;28;20519;-49
2021/12/22 07:18:32;;;;;;;25.83;23.17;;;;;;;;;;5113058;28;20496;-45
2021/12/22 07:20:58;;;;;;;26.42;20.83;;;;;;;;;;5115840;27;20039;-43
2021/12/22 07:23:23;;;;;;;28.45;23.83;;;;;;;;;;5116184;28;20027;-48
2021/12/22 07:25:48;;;;;;;85.82;31.85;;;;;;;;;;5117114;28;20100;-48
2021/12/22 07:28:14;;;;;;;44.10;23.77;;;;;;;;;;5115606;28;20542;-45
2021/12/22 07:30:40;;;;;;;30.02;22.60;;;;;;;;;;5111996;28;20022;-48
2021/12/22 07:33:05;;;;;;;22.50;19.42;;;;;;;;;;5113171;28;20015;-47
2021/12/22 07:35:31;;;;;;;23.27;20.30;;;;;;;;;;5116248;28;20023;-47
2021/12/22 07:38:11;;;;;;;71.00;63.45;;;;;;;;;;5117798;28;20167;-47
2021/12/22 07:40:37;;;;;;;46.25;38.17;;;;;;;;;;5109554;28;20050;-46
2021/12/22 07:43:02;;;;;;;34.67;31.08;;;;;;;;;;5113549;28;20084;-46
2021/12/22 07:45:28;;;;;;;34.88;24.83;;;;;;;;;;5112499;28;20031;-44
2021/12/22 07:47:53;;;;;;;30.63;19.25;;;;;;;;;;5117577;28;20531;-47
2021/12/22 07:50:18;;;;;;;25.23;22.23;;;;;;;;;;5119647;27;20049;-46
2021/12/22 07:52:43;;;;;;;32.83;21.88;;;;;;;;;;5119691;27;20031;-44
2021/12/22 07:55:09;;;;;;;26.77;21.65;;;;;;;;;;5120533;27;20412;-45
2021/12/22 07:57:34;;;;;;;35.25;25.35;;;;;;;;;;5115854;27;20481;-47
2021/12/22 07:59:59;;;;;;;33.97;27.98;;;;;;;;;;5114892;27;20023;-43
2021/12/22 08:02:25;;;;;;;26.67;23.92;;;;;;;;;;5116827;27;20066;-44
2021/12/22 08:04:50;;;;;;;52.63;29.23;;;;;;;;;;5116981;27;20016;-44
2021/12/22 08:07:15;;;;;;;47.95;29.40;;;;;;;;;;5117499;27;20088;-45
2021/12/22 08:09:41;;;;;;;43.55;33.75;;;;;;;;;;5117745;27;20436;-43
2021/12/22 08:12:06;;;;;;;52.67;24.77;;;;;;;;;;5118138;27;20048;-45
2021/12/22 08:14:32;;;;;;;38.80;24.02;;;;;;;;;;5118329;27;20487;-44
2021/12/22 08:16:57;;;;;;;24.45;22.05;;;;;;;;;;5114791;27;20016;-42
2021/12/22 08:19:23;;;;;;;43.75;24.27;;;;;;;;;;5116099;27;20023;-44
2021/12/22 08:21:48;;;;;;;50.10;39.90;;;;;;;;;;5119158;27;20544;-42
2021/12/22 08:24:14;;;;;;;70.30;45.55;;;;;;;;;;5116880;27;20027;-43
2021/12/22 08:26:41;;;;;;;74.43;57.63;;;;;;;;;;5114507;27;20047;-44
2021/12/22 08:29:06;;;;;;;103.40;71.90;;;;;;;;;;5116916;27;20015;-47
2021/12/22 08:31:31;;;;;;;119.38;93.43;;;;;;;;;;5119751;27;20338;-48
2021/12/22 08:33:57;;;;;;;124.90;96.47;;;;;;;;;;5120220;27;20657;-44
2021/12/22 08:39:09;;;;;;;112.43;92.55;;;;;;;;;;5120889;27;20121;-42
2021/12/22 08:41:36;;;;;;;112.65;98.40;;;;;;;;;;5114667;27;20028;-45
2021/12/22 08:44:06;;;;;;;164.05;125.85;;;;;;;;;;5116607;27;20034;-45
2021/12/22 08:46:31;;;;;;;154.10;126.03;;;;;;;;;;5118416;27;20018;-46
2021/12/22 08:48:57;;;;;;;136.90;112.15;;;;;;;;;;5120405;27;20020;-45
2021/12/22 08:51:23;;;;;;;134.93;104.95;;;;;;;;;;5113868;27;20024;-45
2021/12/22 08:53:48;;;;;;;129.75;98.35;;;;;;;;;;5116676;27;20190;-42
2021/12/22 08:56:14;;;;;;;104.82;84.68;;;;;;;;;;5120370;27;20019;-43
2021/12/22 08:58:39;;;;;;;97.88;87.15;;;;;;;;;;5118415;27;20042;-45
2021/12/22 09:01:05;;;;;;;118.85;85.80;;;;;;;;;;5117253;27;20023;-43
2021/12/22 09:03:30;;;;;;;101.43;80.55;;;;;;;;;;5112465;27;20531;-43
2021/12/22 09:05:55;;;;;;;87.32;74.55;;;;;;;;;;5115582;27;20019;-44
2021/12/22 09:08:21;;;;;;;96.88;75.53;;;;;;;;;;5117421;27;20022;-45
2021/12/22 09:10:46;;;;;;;84.20;67.47;;;;;;;;;;5116354;27;20609;-45
2021/12/22 09:13:13;;;;;;;79.95;60.38;;;;;;;;;;5116008;27;20551;-48
2021/12/22 09:15:39;;;;;;;90.95;58.50;;;;;;;;;;5115311;27;20432;-47
2021/12/22 09:18:04;;;;;;;72.20;56.33;;;;;;;;;;5119488;27;20059;-44
2021/12/22 09:20:29;;;;;;;49.72;43.95;;;;;;;;;;5113407;27;20046;-43
2021/12/22 09:22:55;;;;;;;59.60;47.55;;;;;;;;;;5116525;27;20173;-48
2021/12/22 09:25:21;;;;;;;56.95;44.63;;;;;;;;;;5117802;27;20076;-46
2021/12/22 09:27:46;;;;;;;52.90;47.50;;;;;;;;;;5117298;27;20222;-44
2021/12/22 09:30:11;;;;;;;64.05;47.33;;;;;;;;;;5114629;27;20015;-43
2021/12/22 09:32:38;;;;;;;52.33;41.15;;;;;;;;;;5118388;27;20623;-45
2021/12/22 09:35:03;;;;;;;61.40;48.40;;;;;;;;;;5115977;27;20572;-48
2021/12/22 09:37:29;;;;;;;88.32;49.13;;;;;;;;;;5115919;27;20098;-46
2021/12/22 09:39:54;;;;;;;47.92;42.78;;;;;;;;;;5117620;27;20067;-45
2021/12/22 09:42:19;;;;;;;57.38;46.15;;;;;;;;;;5113721;27;20047;-50
2021/12/22 09:44:46;;;;;;;63.63;57.35;;;;;;;;;;5117314;27;20023;-44
2021/12/22 09:47:12;;;;;;;80.85;72.60;;;;;;;;;;5113061;27;20019;-45
2021/12/22 09:52:21;;;;;;;96.53;86.57;;;;;;;;;;5117899;27;20123;-43
2021/12/22 09:54:47;;;;;;;119.18;91.43;;;;;;;;;;5116772;27;20070;-45
2021/12/22 09:57:15;;;;;;;97.57;80.35;;;;;;;;;;5116902;27;20023;-44
2021/12/22 09:59:40;;;;;;;78.05;69.40;;;;;;;;;;5114066;27;20066;-48
2021/12/22 10:02:06;;;;;;;78.03;68.07;;;;;;;;;;5118780;27;20563;-47
2021/12/22 10:04:32;;;;;;;66.25;53.35;;;;;;;;;;5118343;27;20023;-50
2021/12/22 10:06:57;;;;;;;61.70;48.50;;;;;;;;;;5116953;27;20019;-46
2021/12/22 10:09:23;;;;;;;57.25;51.55;;;;;;;;;;5114144;27;20023;-44
2021/12/22 10:11:48;;;;;;;69.78;53.92;;;;;;;;;;5114954;27;20120;-44
2021/12/22 10:14:18;;;;;;;50.10;45.05;;;;;;;;;;5114953;27;20031;-50
2021/12/22 10:16:44;;;;;;;58.08;51.78;;;;;;;;;;5114025;27;20023;-45
2021/12/22 10:19:10;;;;;;;61.15;46.97;;;;;;;;;;5115741;27;20035;-46
2021/12/22 10:21:49;;;;;;;27.80;24.55;;;;;;;;;;5113209;27;20089;-45
2021/12/22 10:24:14;;;;;;;15.07;10.43;;;;;;;;;;5112298;27;20122;-47
2021/12/22 10:26:39;;;;;;;13.18;10.02;;;;;;;;;;5115106;27;20098;-49
2021/12/22 10:29:06;;;;;;;21.35;19.08;;;;;;;;;;5117662;27;20049;-48
2021/12/22 10:31:31;;;;;;;31.55;25.77;;;;;;;;;;5114575;27;20520;-44
2021/12/22 10:33:58;;;;;;;24.50;21.90;;;;;;;;;;5116250;27;20030;-47
2021/12/22 10:36:23;;;;;;;44.80;33.75;;;;;;;;;;5116143;27;20022;-46
2021/12/22 10:38:59;;;;;;;55.80;35.67;;;;;;;;;;5113542;27;20031;-48
2021/12/22 10:41:28;;;;;;;23.30;13.45;;;;;;;;;;5117777;27;20597;-47
2021/12/22 10:43:54;;;;;;;17.10;10.13;;;;;;;;;;5111559;27;20130;-46
2021/12/22 10:46:27;;;;;;;18.00;10.73;;;;;;;;;;5116998;27;20422;-44
2021/12/22 10:49:17;;;;;;;14.07;10.55;;;;;;;;;;5110720;27;20019;-44
2021/12/22 10:51:47;;;;;;;13.02;7.88;;;;;;;;;;5115384;27;20027;-46
2021/12/22 10:54:15;;;;;;;14.25;11.68;;;;;;;;;;5113249;27;20335;-43
2021/12/22 10:56:44;;;;;;;14.88;11.82;;;;;;;;;;5113467;27;20019;-50
2021/12/22 10:59:14;;;;;;;20.15;10.32;;;;;;;;;;5117186;27;20016;-44
2021/12/22 11:01:39;;;;;;;14.20;10.10;;;;;;;;;;5114345;27;20030;-45
2021/12/22 11:04:15;;;;;;;27.55;9.38;;;;;;;;;;5112546;27;20023;-45
2021/12/22 11:06:40;;;;;;;17.55;8.40;;;;;;;;;;5113456;28;20054;-48
2021/12/22 11:09:10;;;;;;;15.55;8.15;;;;;;;;;;5112586;28;20483;-49
2021/12/22 11:11:56;;;;;;;19.75;8.00;;;;;;;;;;5113420;28;20178;-48
2021/12/22 11:14:22;;;;;;;10.43;8.32;;;;;;;;;;5112309;28;20085;-46
2021/12/22 11:17:06;;;;;;;27.85;12.18;;;;;;;;;;5109816;28;20759;-46
2021/12/22 11:19:35;;;;;;;27.65;10.68;;;;;;;;;;5112367;28;20072;-49
2021/12/22 11:22:07;;;;;;;14.63;8.98;;;;;;;;;;5110631;27;20038;-43
2021/12/22 11:24:32;;;;;;;;;;;;;;;;;;5117114;27;20027;-46
2021/12/22 11:26:57;;;;;;;13.75;12.35;;;;;;;;;;5115393;27;20652;-46
2021/12/22 11:29:24;;;;;;;24.17;13.25;;;;;;;;;;5115670;27;20019;-49
2021/12/22 11:31:50;;;;;;;17.00;11.35;;;;;;;;;;5116235;27;21336;-44
2021/12/22 11:34:16;;;;;;;12.82;11.30;;;;;;;;;;5117287;27;20023;-46
2021/12/22 11:36:42;;;;;;;17.58;11.05;;;;;;;;;;5119248;27;20023;-45
2021/12/22 11:39:08;;;;;;;11.82;9.18;;;;;;;;;;5117722;27;20034;-46
2021/12/22 11:41:42;;;;;;;10.38;9.32;;;;;;;;;;5120010;27;20011;-47
2021/12/22 11:44:08;;;;;;;16.33;12.25;;;;;;;;;;5116510;27;20027;-48
2021/12/22 11:46:33;;;;;;;30.25;15.20;;;;;;;;;;5119714;27;20019;-49
2021/12/22 11:48:59;;;;;;;19.73;13.32;;;;;;;;;;5117583;27;20019;-44
2021/12/22 11:51:26;;;;;;;17.65;11.25;;;;;;;;;;5117624;27;20589;-45
2021/12/22 11:53:53;;;;;;;9.02;7.78;;;;;;;;;;5114739;27;20221;-46
2021/12/22 11:56:37;;;;;;;14.10;7.95;;;;;;;;;;5115445;27;20034;-48
2021/12/22 11:59:02;;;;;;;18.05;10.20;;;;;;;;;;5109429;27;20103;-46
2021/12/22 12:01:27;;;;;;;10.95;8.02;;;;;;;;;;5114211;27;20024;-46
2021/12/22 12:04:10;;;;;;;29.75;15.00;;;;;;;;;;5116602;27;20545;-45
2021/12/22 12:06:46;;;;;;;18.73;9.77;;;;;;;;;;5115229;27;20089;-44
2021/12/22 12:09:12;;;;;;;16.50;11.93;;;;;;;;;;5115532;27;20024;-47
2021/12/22 12:11:50;;;;;;;11.13;7.07;;;;;;;;;;5113718;27;20054;-43
2021/12/22 12:14:37;;;;;;;37.65;17.58;;;;;;;;;;5116695;27;20034;-45
2021/12/22 12:23:27;;;;;;;19.58;14.07;;;;;;;;;;5118402;27;20041;-41
2021/12/22 12:25:52;;;;;;;19.08;12.02;;;;;;;;;;5115330;27;20023;-44
2021/12/22 12:28:19;;;;;;;25.70;19.42;;;;;;;;;;5115623;27;20059;-42
2021/12/22 12:30:46;;;;;;;21.58;17.52;;;;;;;;;;5115552;27;20038;-43
2021/12/22 12:33:12;;;;;;;17.90;14.38;;;;;;;;;;5115876;27;20027;-42
2021/12/22 12:35:39;;;;;;;14.80;12.07;;;;;;;;;;5116000;27;20123;-42
2021/12/22 12:38:22;;;;;;;20.08;11.30;;;;;;;;;;5119111;27;20322;-43
2021/12/22 12:41:06;;;;;;;15.38;13.48;;;;;;;;;;5116733;27;20789;-44
2021/12/22 12:43:51;;;;;;;17.98;12.93;;;;;;;;;;5115689;27;20144;-42
2021/12/22 12:46:20;;;;;;;20.45;11.07;;;;;;;;;;5116971;27;20058;-42
2021/12/22 12:48:46;;;;;;;16.45;10.93;;;;;;;;;;5117531;27;20020;-46
2021/12/22 12:51:13;;;;;;;12.65;11.32;;;;;;;;;;5114479;27;20035;-44
2021/12/22 12:53:40;;;;;;;18.73;11.40;;;;;;;;;;5120598;27;20019;-47
2021/12/22 12:56:07;;;;;;;12.82;11.63;;;;;;;;;;5118963;27;20026;-46
2021/12/22 12:58:33;;;;;;;18.35;14.07;;;;;;;;;;5112822;27;20047;-42
2021/12/22 13:00:58;;;;;;;19.50;15.15;;;;;;;;;;5114688;27;20448;-40
2021/12/22 13:03:23;;;;;;;36.42;19.08;;;;;;;;;;5112988;27;20098;-40
2021/12/22 13:05:48;;;;;;;35.35;23.05;;;;;;;;;;5115428;27;20388;-43
2021/12/22 13:08:14;;;;;;;30.45;21.58;;;;;;;;;;5114941;27;20034;-43
2021/12/22 13:10:42;;;;;;;64.00;58.40;;;;;;;;;;5114615;27;20047;-43
2021/12/22 13:13:16;;;;;;;30.30;25.67;;;;;;;;;;5119036;27;20549;-45
2021/12/22 13:15:49;;;;;;;29.50;25.85;;;;;;;;;;5117012;27;20060;-41
2021/12/22 13:18:17;;;;;;;47.75;43.00;;;;;;;;;;5115799;27;20030;-44
2021/12/22 13:20:43;;;;;;;36.25;31.67;;;;;;;;;;5114664;27;20055;-44
2021/12/22 13:23:19;;;;;;;21.65;17.50;;;;;;;;;;5120005;27;20110;-45
2021/12/22 13:25:46;;;;;;;35.90;32.75;;;;;;;;;;5118076;27;20689;-42
2021/12/22 13:28:11;;;;;;;24.15;21.60;;;;;;;;;;5115090;27;20023;-41
2021/12/22 13:30:47;;;;;;;20.75;17.60;;;;;;;;;;5118620;27;20020;-43
2021/12/22 13:33:19;;;;;;;21.30;19.13;;;;;;;;;;5116528;27;20061;-46
2021/12/22 13:35:45;;;;;;;20.48;17.40;;;;;;;;;;5117933;27;20027;-46
2021/12/22 13:38:27;;;;;;;21.98;18.48;;;;;;;;;;5118708;27;20027;-47
2021/12/22 13:40:55;;;;;;;14.68;13.23;;;;;;;;;;5123156;27;20107;-39
2021/12/22 13:43:22;;;;;;;26.75;18.13;;;;;;;;;;5120684;27;20914;-41
2021/12/22 13:45:48;;;;;;;30.38;12.20;;;;;;;;;;5116767;27;20091;-42
2021/12/22 13:48:14;;;;;;;18.17;13.15;;;;;;;;;;5114036;27;20020;-41
2021/12/22 13:50:41;;;;;;;20.92;14.30;;;;;;;;;;5122554;27;20096;-41
2021/12/22 13:53:06;;;;;;;21.73;14.45;;;;;;;;;;5125709;27;20031;-41
2021/12/22 13:55:31;;;;;;;24.83;15.07;;;;;;;;;;5125730;27;20433;-40
2021/12/22 13:57:57;;;;;;;12.93;11.73;;;;;;;;;;5132380;27;20023;-42
2021/12/22 14:00:22;;;;;;;18.83;13.52;;;;;;;;;;5129430;27;20056;-42
2021/12/22 14:02:47;;;;;;;12.70;10.88;;;;;;;;;;5120923;27;20047;-43
2021/12/22 14:05:17;;;;;;;17.38;12.70;;;;;;;;;;5119885;27;20015;-44
2021/12/22 14:07:43;;;;;;;16.73;13.68;;;;;;;;;;5119412;27;20053;-42
2021/12/22 14:10:10;;;;;;;22.63;13.52;;;;;;;;;;5123203;27;20016;-44
2021/12/22 14:12:36;;;;;;;20.75;13.02;;;;;;;;;;5120457;27;20019;-43
2021/12/22 14:15:02;;;;;;;21.08;14.68;;;;;;;;;;5127817;27;20023;-45
2021/12/22 14:17:35;;;;;;;35.35;16.92;;;;;;;;;;5128093;27;20037;-41
2021/12/22 14:20:03;;;;;;;23.70;18.70;;;;;;;;;;5125723;27;20051;-46
2021/12/22 14:22:32;;;;;;;21.33;16.42;;;;;;;;;;5118714;27;20019;-45
2021/12/22 14:24:57;;;;;;;10.23;7.72;;;;;;;;;;5119723;27;20027;-43
2021/12/22 14:27:38;;;;;;;12.68;10.43;;;;;;;;;;5123602;27;20057;-45
2021/12/22 14:30:05;;;;;;;21.48;11.75;;;;;;;;;;5127963;27;20104;-45
2021/12/22 14:32:36;;;;;;;33.42;12.80;;;;;;;;;;5121171;27;20034;-43
2021/12/22 14:35:09;;;;;;;16.90;10.38;;;;;;;;;;5122200;27;20027;-43
2021/12/22 14:37:35;;;;;;;21.60;18.27;;;;;;;;;;5115105;27;20506;-45
2021/12/22 14:40:00;;;;;;;18.63;14.07;;;;;;;;;;5115335;27;20428;-40
2021/12/22 14:42:26;;;;;;;10.85;7.53;;;;;;;;;;5116907;27;20061;-40